Parawa Second Valley Forest, Australia
Current Conditions -  °F | °C
As of 9:00 AM on Thursday 27 Nov 2014 (Local Time) from YPAD Reporting Station
Few Clouds Few Clouds  
Wind Chill: 66°   Ceiling: Unl
Heat Index: 66°   Visibility: 6mi
Dew Point: 50°   Wind: 5mph
Humidity: 56%   Direction: 320°NW
Pressure: 30.21"   Gusts: NA
Location:  35.57°S, 138.24°E
Report Text: YPAD 262300Z 32004KT 9999 FEW030 19/10 Q1023 NOSIG
Loading
Personal Weather Stations






























Interactive Weather Map New forecast layout! Learn more

10-Day Weather Forecast

Advertisements
Track Severe Weather on mobile